Time;durP1;ratioP1;P1;durP2;ratioP2;P2;SDS_P1;SDS_P2;PMS_P1;PMS_P2;Temp;Humidity;BMP_temperature;BMP_pressure;BME280_temperature;BME280_humidity;BME280_pressure;Samples;Min_cycle;Max_cycle;Signal;HPM_P1;HPM_P2
2021/12/02 00:01:47;;;;;;;1.60;1.13;;;;;;;6.77;83.12;98817.38;5081594;28;20409;-77
2021/12/02 00:04:12;;;;;;;1.33;0.90;;;;;;;6.77;82.91;98811.19;5076497;28;20418;-78
2021/12/02 00:06:38;;;;;;;3.37;1.13;;;;;;;6.86;82.27;98795.34;5075040;28;20465;-77
2021/12/02 00:09:03;;;;;;;1.40;1.10;;;;;;;6.88;81.74;98809.38;5087009;28;20402;-77
2021/12/02 00:11:29;;;;;;;2.30;1.67;;;;;;;6.85;82.29;98813.38;5081864;28;20895;-78
2021/12/02 00:13:58;;;;;;;2.40;1.05;;;;;;;6.73;83.15;98816.28;5084279;28;20382;-78
2021/12/02 00:21:36;;;;;;;1.13;0.80;;;;;;;6.72;82.96;98814.66;5079439;28;20808;-78
2021/12/02 00:24:07;;;;;;;2.90;0.90;;;;;;;6.75;83.10;98807.97;5102043;28;20413;-78
2021/12/02 00:26:35;;;;;;;1.75;0.63;;;;;;;6.78;83.12;98813.59;5073615;28;20435;-77
2021/12/02 00:29:03;;;;;;;1.98;1.08;;;;;;;6.71;83.15;98809.53;5078924;28;20761;-78
2021/12/02 00:31:32;;;;;;;1.00;0.50;;;;;;;6.81;82.18;98815.00;5078778;28;20394;-77
2021/12/02 00:34:00;;;;;;;2.40;0.90;;;;;;;6.82;82.62;98813.13;5081271;28;20395;-77
2021/12/02 00:36:32;;;;;;;2.03;0.80;;;;;;;6.71;83.06;98818.44;5073787;28;20885;-77
2021/12/02 00:39:00;;;;;;;2.28;1.10;;;;;;;6.63;83.48;98818.91;5082049;28;20388;-78
2021/12/02 00:41:27;;;;;;;2.00;0.90;;;;;;;6.67;82.98;98817.31;5073807;28;20420;-78
2021/12/02 00:43:56;;;;;;;3.83;1.20;;;;;;;6.70;83.43;98808.72;5075316;28;20420;-78
2021/12/02 00:46:23;;;;;;;2.30;0.90;;;;;;;6.70;83.68;98819.50;5073770;28;20438;-77
2021/12/02 00:48:49;;;;;;;1.65;0.75;;;;;;;6.71;83.27;98814.94;5086005;28;20389;-77
2021/12/02 00:51:16;;;;;;;2.05;0.80;;;;;;;6.73;83.30;98815.47;5088238;28;20757;-78
2021/12/02 00:53:45;;;;;;;0.95;0.60;;;;;;;6.67;83.22;98813.81;5077371;28;20388;-77
2021/12/02 00:56:14;;;;;;;3.05;1.20;;;;;;;6.77;83.17;98811.19;5073548;28;20422;-78
2021/12/02 00:58:40;;;;;;;3.07;1.10;;;;;;;6.71;83.56;98817.63;5060828;28;20488;-78
2021/12/02 01:01:07;;;;;;;2.53;0.60;;;;;;;6.66;83.45;98825.66;5091796;28;20390;-77
2021/12/02 01:03:36;;;;;;;2.20;0.80;;;;;;;6.57;83.73;98828.03;5077663;28;20523;-77
2021/12/02 01:06:04;;;;;;;3.08;0.90;;;;;;;6.56;84.02;98825.56;5088072;28;20422;-77
2021/12/02 01:08:32;;;;;;;2.28;1.13;;;;;;;6.63;83.86;98821.59;5073704;28;20396;-77
2021/12/02 01:10:57;;;;;;;2.97;1.30;;;;;;;6.55;83.63;98821.28;5073751;28;20433;-77
2021/12/02 01:13:23;;;;;;;2.03;0.90;;;;;;;6.47;83.82;98827.13;5074345;28;20401;-76
2021/12/02 01:15:48;;;;;;;2.87;1.20;;;;;;;6.47;84.08;98822.56;5090594;28;20386;-77
2021/12/02 01:18:14;;;;;;;8.25;1.08;;;;;;;6.55;83.77;98822.06;5089061;28;20395;-76
2021/12/02 01:20:43;;;;;;;3.83;0.90;;;;;;;6.51;84.27;98825.56;5085738;28;20424;-76
2021/12/02 01:23:09;;;;;;;2.63;1.20;;;;;;;6.50;83.65;98827.44;5077281;28;20399;-77
2021/12/02 01:25:35;;;;;;;2.83;1.00;;;;;;;6.49;84.28;98835.75;5090591;28;20394;-77
2021/12/02 01:28:00;;;;;;;4.20;1.07;;;;;;;6.39;84.02;98827.63;5077296;28;20450;-77
2021/12/02 01:30:27;;;;;;;3.50;1.10;;;;;;;6.32;84.12;98816.25;5083354;28;20394;-77
2021/12/02 01:33:00;;;;;;;1.50;0.80;;;;;;;6.29;83.93;98819.47;5076441;28;20494;-77
2021/12/02 01:35:26;;;;;;;2.17;1.08;;;;;;;6.17;83.89;98816.94;5077511;28;20448;-77
2021/12/02 01:37:52;;;;;;;2.65;0.68;;;;;;;6.17;84.21;98815.06;5075186;28;20951;-77
2021/12/02 01:40:18;;;;;;;3.47;1.38;;;;;;;6.15;84.19;98819.88;5085070;28;20406;-77
2021/12/02 01:42:46;;;;;;;2.30;1.13;;;;;;;6.13;84.25;98823.88;5059510;28;20444;-77
2021/12/02 01:45:15;;;;;;;4.63;1.00;;;;;;;6.02;84.25;98824.88;5090055;28;20388;-77
2021/12/02 01:47:47;;;;;;;1.95;0.73;;;;;;;6.00;84.32;98822.44;5076069;28;20406;-77
2021/12/02 01:50:16;;;;;;;2.70;1.20;;;;;;;5.99;84.53;98830.75;5093005;28;20382;-78
2021/12/02 01:52:43;;;;;;;3.30;0.90;;;;;;;6.02;83.97;98830.25;5075330;28;20394;-77
2021/12/02 01:55:12;;;;;;;1.90;0.90;;;;;;;6.05;84.30;98827.88;5085784;28;20902;-78
2021/12/02 01:57:47;;;;;;;3.20;0.80;;;;;;;6.08;84.03;98832.72;5073059;28;20411;-79
2021/12/02 02:00:22;;;;;;;2.30;0.90;;;;;;;6.17;83.00;98835.75;5072915;28;20750;-78
2021/12/02 02:02:48;;;;;;;1.85;0.90;;;;;;;6.22;83.32;98831.22;5089184;28;20393;-76
2021/12/02 02:05:15;;;;;;;3.00;0.80;;;;;;;6.23;83.21;98829.34;5084316;28;20399;-77
2021/12/02 02:08:01;;;;;;;5.30;0.93;;;;;;;6.13;84.32;98835.44;5074440;28;20407;-78
2021/12/02 02:10:28;;;;;;;4.30;1.17;;;;;;;6.23;83.81;98826.66;5080138;28;20406;-77
2021/12/02 02:12:58;;;;;;;1.42;0.90;;;;;;;6.21;83.52;98832.31;5072130;28;20411;-79
2021/12/02 02:15:24;;;;;;;3.70;0.93;;;;;;;6.11;83.61;98834.91;5069561;28;20411;-79
2021/12/02 02:17:59;;;;;;;1.33;0.80;;;;;;;6.13;83.18;98830.06;5076322;28;20890;-79
2021/12/02 02:20:35;;;;;;;3.58;0.80;;;;;;;6.11;83.43;98826.03;5074382;28;21122;-79
2021/12/02 02:23:01;;;;;;;3.97;1.08;;;;;;;6.11;83.04;98813.41;5085180;28;20407;-78
2021/12/02 02:25:26;;;;;;;1.20;0.83;;;;;;;6.15;82.89;98822.59;5083649;28;20920;-76
2021/12/02 02:27:51;;;;;;;5.67;4.43;;;;;;;6.10;83.39;98821.69;5076272;28;20407;-79
2021/12/02 02:30:17;;;;;;;3.17;1.17;;;;;;;6.01;83.81;98823.25;5085807;28;20398;-79
2021/12/02 02:32:42;;;;;;;3.10;0.90;;;;;;;5.98;83.86;98821.88;5072894;28;20404;-79
2021/12/02 02:35:08;;;;;;;2.67;1.17;;;;;;;5.93;84.13;98823.72;5071658;28;20454;-79
2021/12/02 02:37:33;;;;;;;2.50;1.30;;;;;;;5.88;84.70;98824.47;5071831;28;20902;-79
2021/12/02 02:40:01;;;;;;;3.83;1.40;;;;;;;5.86;84.58;98820.41;5088765;28;20834;-78
2021/12/02 02:42:26;;;;;;;2.38;1.20;;;;;;;5.81;84.68;98815.75;5086539;28;20400;-78
2021/12/02 02:44:53;;;;;;;1.83;1.13;;;;;;;5.80;84.50;98813.31;5064717;28;20879;-78
2021/12/02 02:47:20;;;;;;;1.97;1.00;;;;;;;5.80;84.11;98814.13;5063348;28;20502;-78
2021/12/02 02:49:47;;;;;;;2.30;1.13;;;;;;;5.70;84.45;98822.09;5072573;28;20878;-78
2021/12/02 02:52:13;;;;;;;1.65;1.10;;;;;;;5.60;85.04;98825.47;5084630;28;20424;-78
2021/12/02 02:54:38;;;;;;;5.87;1.70;;;;;;;5.66;84.98;98827.16;5073742;28;20403;-78
2021/12/02 02:57:06;;;;;;;2.83;0.90;;;;;;;5.67;84.89;98825.28;5072181;28;20390;-78
2021/12/02 03:02:58;;;;;;;3.15;0.70;;;;;;;5.87;84.47;98825.53;5086123;28;20399;-78
2021/12/02 03:04:59;;;;;;;2.05;0.77;;;;;;;5.95;83.50;98833.16;5071837;28;20463;-78
2021/12/02 03:13:14;;;;;;;1.67;0.60;;;;;;;5.98;83.41;98832.63;5086026;28;20764;-78
2021/12/02 03:18:26;;;;;;;5.93;3.42;;;;;;;6.09;82.81;98837.03;5071400;28;20414;-78
2021/12/02 03:20:51;;;;;;;14.87;8.60;;;;;;;6.11;83.05;98829.53;5072463;28;20396;-78
2021/12/02 03:23:16;;;;;;;10.53;6.40;;;;;;;6.12;82.70;98819.59;5080419;28;20406;-78
2021/12/02 03:25:41;;;;;;;4.43;1.23;;;;;;;6.03;82.74;98821.91;5079259;28;20404;-78
2021/12/02 03:28:07;;;;;;;3.05;1.50;;;;;;;5.93;82.93;98821.81;5082656;28;20392;-78
2021/12/02 03:30:32;;;;;;;2.97;1.20;;;;;;;5.84;82.25;98814.44;5086902;28;20416;-78
2021/12/02 03:32:58;;;;;;;1.93;0.90;;;;;;;5.82;82.48;98816.56;5087507;28;20451;-78
2021/12/02 03:35:23;;;;;;;2.38;0.90;;;;;;;5.87;82.23;98819.34;5080497;28;20842;-78
2021/12/02 03:37:49;;;;;;;1.60;0.80;;;;;;;5.74;82.89;98815.97;5073194;28;20473;-78
2021/12/02 03:40:14;;;;;;;1.73;0.90;;;;;;;5.70;82.87;98814.84;5071227;28;20426;-78
2021/12/02 03:42:49;;;;;;;4.77;2.17;;;;;;;5.69;82.83;98815.94;5053243;28;20878;-78
2021/12/02 03:45:15;;;;;;;24.27;9.27;;;;;;;5.72;82.93;98811.91;5071314;28;20944;-78
2021/12/02 03:47:40;;;;;;;12.98;4.25;;;;;;;5.82;82.61;98820.09;5071045;28;20384;-78
2021/12/02 03:50:06;;;;;;;15.32;5.72;;;;;;;5.81;82.22;98813.06;5084112;28;20766;-78
2021/12/02 03:52:31;;;;;;;14.63;5.40;;;;;;;5.85;82.29;98816.88;5075551;28;20483;-78
2021/12/02 03:54:57;;;;;;;18.17;8.73;;;;;;;5.92;81.80;98816.72;5085481;28;20498;-78
2021/12/02 03:57:22;;;;;;;9.03;4.37;;;;;;;5.92;82.46;98808.66;5071264;28;20380;-78
2021/12/02 03:59:47;;;;;;;5.70;2.50;;;;;;;5.90;81.66;98805.38;5076975;28;20862;-78
2021/12/02 04:02:12;;;;;;;4.50;2.00;;;;;;;5.89;81.83;98804.59;5071107;28;20388;-78
2021/12/02 04:04:38;;;;;;;6.40;1.20;;;;;;;5.96;81.85;98804.38;5085458;28;20415;-78
2021/12/02 04:07:03;;;;;;;1.93;1.17;;;;;;;5.98;81.70;98804.94;5081214;28;20403;-78
2021/12/02 04:09:35;;;;;;;4.90;1.67;;;;;;;6.04;81.51;98806.59;5071107;28;20407;-78
2021/12/02 04:12:12;;;;;;;3.07;1.50;;;;;;;6.07;81.82;98808.78;5085403;28;20385;-78
2021/12/02 04:15:02;;;;;;;4.25;1.15;;;;;;;6.00;81.55;98813.53;5073032;28;20422;-78
2021/12/02 04:17:40;;;;;;;2.55;1.30;;;;;;;6.07;81.24;98809.59;5074077;28;20770;-78
2021/12/02 04:20:06;;;;;;;2.22;0.80;;;;;;;6.10;81.64;98806.38;5075856;28;20758;-78
2021/12/02 04:22:31;;;;;;;3.50;0.60;;;;;;;6.05;81.70;98805.53;5074522;28;20398;-77
2021/12/02 04:24:57;;;;;;;4.17;0.90;;;;;;;6.14;81.40;98815.56;5082351;28;20408;-77
2021/12/02 04:27:22;;;;;;;1.57;0.60;;;;;;;6.18;81.46;98814.00;5056270;28;20496;-78
2021/12/02 04:29:47;;;;;;;0.97;0.70;;;;;;;6.22;80.64;98811.59;5088850;28;20884;-78
2021/12/02 04:32:12;;;;;;;3.90;2.50;;;;;;;6.14;81.78;98807.50;5085223;28;20486;-78
2021/12/02 04:34:38;;;;;;;3.67;2.57;;;;;;;6.06;81.99;98813.34;5095570;28;20490;-78
2021/12/02 04:37:03;;;;;;;6.03;3.67;;;;;;;6.00;81.80;98811.66;5090014;28;20408;-78
2021/12/02 04:39:28;;;;;;;4.43;1.55;;;;;;;5.98;82.41;98819.19;5073859;28;20412;-78
2021/12/02 04:41:54;;;;;;;4.10;1.83;;;;;;;6.02;82.46;98814.94;5090855;28;20390;-77
2021/12/02 04:44:19;;;;;;;3.33;1.27;;;;;;;5.98;82.12;98811.13;5079065;28;20507;-78
2021/12/02 04:46:45;;;;;;;2.93;0.73;;;;;;;5.93;82.40;98812.97;5081549;28;20447;-78
2021/12/02 04:49:10;;;;;;;3.55;0.90;;;;;;;6.03;82.14;98815.72;5081830;28;20438;-78
2021/12/02 04:51:36;;;;;;;3.27;0.90;;;;;;;6.10;81.40;98806.38;5074315;28;20399;-77
2021/12/02 04:54:01;;;;;;;1.13;0.80;;;;;;;6.18;81.08;98811.31;5090028;28;20417;-78
2021/12/02 04:56:26;;;;;;;2.75;1.00;;;;;;;6.15;80.53;98797.56;5086624;28;20416;-77
2021/12/02 04:58:52;;;;;;;2.60;0.80;;;;;;;6.05;81.60;98805.53;5076455;28;20404;-77
2021/12/02 05:01:17;;;;;;;1.60;0.77;;;;;;;5.91;81.92;98807.00;5073958;28;20475;-78
2021/12/02 05:03:42;;;;;;;1.83;0.63;;;;;;;5.90;82.05;98810.75;5090211;28;20417;-78
2021/12/02 05:06:08;;;;;;;3.77;1.00;;;;;;;5.92;82.44;98814.03;5062485;28;20393;-78
2021/12/02 05:08:33;;;;;;;1.92;0.93;;;;;;;5.87;81.78;98816.66;5086887;28;20404;-78
2021/12/02 05:10:58;;;;;;;1.50;0.70;;;;;;;5.79;82.77;98811.72;5085426;28;20394;-78
2021/12/02 05:13:23;;;;;;;2.70;0.93;;;;;;;5.91;82.02;98818.59;5057856;28;20411;-78
2021/12/02 05:15:49;;;;;;;2.50;0.90;;;;;;;5.93;82.00;98807.59;5074816;28;20413;-78
2021/12/02 05:18:14;;;;;;;2.90;1.23;;;;;;;5.90;82.20;98806.19;5073739;28;20407;-78
2021/12/02 05:20:39;;;;;;;2.83;0.73;;;;;;;5.94;81.40;98810.00;5073676;28;20406;-78
2021/12/02 05:23:05;;;;;;;3.10;1.30;;;;;;;5.89;81.30;98806.47;5105569;28;20451;-78
2021/12/02 05:25:30;;;;;;;2.65;0.95;;;;;;;5.74;82.48;98807.09;5089100;28;20409;-78
2021/12/02 05:27:55;;;;;;;2.00;0.80;;;;;;;5.66;82.70;98810.25;5082279;28;21002;-78
2021/12/02 05:30:21;;;;;;;1.17;0.80;;;;;;;5.72;82.52;98806.53;5074762;28;20400;-78
2021/12/02 05:32:46;;;;;;;2.50;1.20;;;;;;;5.74;81.95;98797.16;5075529;28;20405;-78
2021/12/02 05:35:12;;;;;;;0.60;0.50;;;;;;;5.82;81.83;98795.06;5084030;28;20874;-78
2021/12/02 05:37:37;;;;;;;1.53;1.43;;;;;;;5.82;81.53;98798.56;5073700;28;20400;-78
2021/12/02 05:40:03;;;;;;;3.20;1.30;;;;;;;5.79;81.77;98795.59;5050667;28;20873;-78
2021/12/02 05:42:29;;;;;;;2.80;2.00;;;;;;;5.72;81.90;98785.84;5079288;28;20396;-78
2021/12/02 05:44:54;;;;;;;3.87;1.33;;;;;;;5.80;81.47;98789.13;5080119;28;20436;-78
2021/12/02 05:47:19;;;;;;;3.77;1.23;;;;;;;5.81;80.87;98775.44;5070963;28;20405;-78
2021/12/02 05:49:45;;;;;;;2.55;0.90;;;;;;;5.72;81.43;98771.59;5083998;28;20977;-78
2021/12/02 05:52:10;;;;;;;2.37;0.93;;;;;;;5.59;81.56;98775.50;5059401;28;20756;-78
2021/12/02 05:54:35;;;;;;;0.63;0.60;;;;;;;5.55;81.75;98776.25;5086637;28;20398;-78
2021/12/02 05:57:01;;;;;;;0.95;0.75;;;;;;;5.42;82.46;98766.72;5093873;28;20400;-78
2021/12/02 05:59:26;;;;;;;3.23;0.80;;;;;;;5.49;82.00;98782.66;5069309;28;20527;-78
2021/12/02 06:01:52;;;;;;;2.03;1.10;;;;;;;5.51;82.19;98770.56;5081316;28;20403;-78
2021/12/02 06:04:17;;;;;;;1.63;0.77;;;;;;;5.59;82.54;98775.50;5079704;28;20876;-78
2021/12/02 06:06:42;;;;;;;1.53;0.60;;;;;;;5.72;81.60;98783.16;5091234;28;20424;-78
2021/12/02 06:09:08;;;;;;;3.50;0.70;;;;;;;5.79;81.95;98779.47;5080187;28;20394;-77
2021/12/02 06:11:33;;;;;;;1.83;0.60;;;;;;;5.79;81.77;98776.78;5073814;28;20499;-78
2021/12/02 06:13:58;;;;;;;0.80;0.73;;;;;;;5.79;82.06;98784.84;5082296;28;20396;-78
2021/12/02 06:16:24;;;;;;;1.90;1.10;;;;;;;5.86;81.43;98778.19;5074234;28;20404;-77
2021/12/02 06:18:49;;;;;;;1.53;0.57;;;;;;;5.81;81.94;98782.69;5092262;28;20412;-78
2021/12/02 06:21:14;;;;;;;3.30;0.70;;;;;;;5.74;81.72;98772.97;5088709;28;20827;-79
2021/12/02 06:23:41;;;;;;;1.60;0.80;;;;;;;5.67;82.08;98768.84;5080541;28;20441;-78
2021/12/02 06:26:08;;;;;;;1.88;1.30;;;;;;;5.65;83.17;98773.69;5085418;28;20413;-78
2021/12/02 06:28:33;;;;;;;3.10;0.90;;;;;;;5.59;83.33;98777.38;5077903;28;20405;-77
2021/12/02 06:31:02;;;;;;;3.33;1.38;;;;;;;5.55;83.82;98771.69;5082594;28;20396;-77
2021/12/02 06:33:27;;;;;;;5.57;3.10;;;;;;;5.59;83.98;98775.50;5078563;28;20779;-79
2021/12/02 06:35:52;;;;;;;2.90;1.90;;;;;;;5.66;83.57;98773.41;5054173;28;20494;-78
2021/12/02 06:38:17;;;;;;;3.13;1.27;;;;;;;5.58;83.75;98784.63;5087217;28;20400;-78
2021/12/02 06:40:45;;;;;;;2.30;1.30;;;;;;;5.60;83.27;98784.34;5072764;28;20715;-78
2021/12/02 06:43:10;;;;;;;2.50;1.33;;;;;;;5.54;83.54;98780.81;5075527;28;20408;-79
2021/12/02 06:45:36;;;;;;;2.40;0.97;;;;;;;5.55;84.36;98789.69;5057698;28;20396;-79
2021/12/02 06:48:01;;;;;;;4.90;2.00;;;;;;;5.58;84.28;98783.81;5057380;28;20397;-78
2021/12/02 06:50:28;;;;;;;0.83;0.70;;;;;;;5.63;84.06;98781.19;5084945;28;20400;-78
2021/12/02 06:52:54;;;;;;;1.70;0.90;;;;;;;5.59;84.29;98786.25;5083729;28;20890;-78
2021/12/02 06:55:21;;;;;;;2.25;1.20;;;;;;;5.56;84.89;98794.00;5079765;28;20426;-78
2021/12/02 06:57:47;;;;;;;1.58;0.77;;;;;;;5.57;85.21;98793.75;5088532;28;20492;-78
2021/12/02 07:00:15;;;;;;;1.80;1.10;;;;;;;5.72;84.71;98788.53;5071624;28;20387;-78
2021/12/02 07:02:40;;;;;;;9.05;1.73;;;;;;;5.81;83.95;98786.19;5064071;28;20752;-79
2021/12/02 07:05:09;;;;;;;3.20;1.80;;;;;;;5.82;84.39;98787.00;5073755;28;20415;-78
2021/12/02 07:07:37;;;;;;;3.42;1.95;;;;;;;5.78;84.35;98794.75;5089118;28;20496;-78
2021/12/02 07:10:11;;;;;;;4.25;2.10;;;;;;;5.80;84.46;98795.31;5061429;28;20399;-78
2021/12/02 07:12:39;;;;;;;3.22;2.17;;;;;;;5.73;84.88;98798.19;5053973;28;20395;-79
2021/12/02 07:15:09;;;;;;;4.30;2.10;;;;;;;5.74;84.63;98793.66;5071511;28;20391;-78
2021/12/02 07:17:35;;;;;;;4.15;1.90;;;;;;;5.78;84.84;98799.31;5070548;28;20411;-78
2021/12/02 07:20:01;;;;;;;3.20;1.93;;;;;;;5.80;84.84;98803.38;5077346;28;20390;-78
2021/12/02 07:22:27;;;;;;;2.78;2.17;;;;;;;5.83;84.03;98802.09;5091525;28;20478;-79
2021/12/02 07:24:52;;;;;;;3.60;1.97;;;;;;;5.79;84.66;98809.03;5078787;28;20466;-78
2021/12/02 07:27:17;;;;;;;3.40;2.07;;;;;;;5.73;84.45;98806.25;5073280;28;20767;-78
2021/12/02 07:29:44;;;;;;;10.50;6.63;;;;;;;5.80;84.56;98802.56;5090764;28;20397;-78
2021/12/02 07:32:11;;;;;;;5.97;3.03;;;;;;;5.85;84.13;98816.06;5079421;28;20407;-78
2021/12/02 07:34:42;;;;;;;5.22;2.08;;;;;;;5.85;84.36;98816.06;5077919;28;20931;-78
2021/12/02 07:37:07;;;;;;;5.25;1.73;;;;;;;5.86;83.70;98817.72;5074837;28;20410;-78
2021/12/02 07:39:33;;;;;;;4.80;1.95;;;;;;;5.91;83.82;98823.16;5084950;28;20396;-78
2021/12/02 07:41:58;;;;;;;3.67;2.00;;;;;;;5.95;84.17;98818.88;5079886;28;20842;-78
2021/12/02 07:44:25;;;;;;;5.03;2.75;;;;;;;5.82;84.60;98817.41;5079059;28;20408;-78
2021/12/02 07:46:51;;;;;;;3.83;1.92;;;;;;;5.97;83.95;98825.63;5080880;28;20403;-78
2021/12/02 07:49:16;;;;;;;3.05;2.38;;;;;;;5.94;83.61;98822.63;5053264;28;20549;-78
2021/12/02 07:51:45;;;;;;;5.40;2.10;;;;;;;5.92;83.77;98830.97;5083414;28;20397;-78
2021/12/02 07:54:12;;;;;;;3.72;1.75;;;;;;;5.92;83.89;98819.41;5087009;28;20391;-78
2021/12/02 07:56:38;;;;;;;3.40;1.75;;;;;;;5.95;84.16;98826.94;5088552;28;20401;-79
2021/12/02 07:59:04;;;;;;;4.53;2.47;;;;;;;5.96;84.31;98826.69;5075021;28;20408;-80
2021/12/02 08:01:33;;;;;;;2.50;1.77;;;;;;;5.94;84.43;98822.63;5078079;28;20410;-78
2021/12/02 08:03:58;;;;;;;2.92;2.10;;;;;;;5.81;84.39;98831.06;5087978;28;20866;-82
2021/12/02 08:06:24;;;;;;;4.40;2.07;;;;;;;5.88;84.79;98835.22;5078218;28;20706;-81
2021/12/02 08:08:49;;;;;;;6.00;2.20;;;;;;;5.86;84.65;98831.97;5088219;28;20418;-82
2021/12/02 08:11:14;;;;;;;2.50;1.93;;;;;;;5.70;85.33;98844.41;5087695;28;20474;-80
2021/12/02 08:13:40;;;;;;;3.13;2.33;;;;;;;5.66;85.66;98850.56;5099346;28;20907;-82
2021/12/02 08:16:07;;;;;;;5.80;2.87;;;;;;;5.54;86.74;98845.31;5076796;28;20382;-81
2021/12/02 08:18:34;;;;;;;3.17;2.40;;;;;;;5.47;87.66;98849.22;5074862;28;20400;-82
2021/12/02 08:20:59;;;;;;;4.95;2.75;;;;;;;5.37;87.47;98852.59;5081255;28;20498;-81
2021/12/02 08:23:25;;;;;;;4.97;2.45;;;;;;;5.38;88.13;98862.31;5063859;28;20855;-81
2021/12/02 08:25:51;;;;;;;4.80;2.75;;;;;;;5.42;87.98;98859.94;5076228;28;20397;-81
2021/12/02 08:28:17;;;;;;;5.13;2.70;;;;;;;5.26;88.09;98872.38;5074310;28;20404;-80
2021/12/02 08:30:42;;;;;;;3.57;2.77;;;;;;;5.20;87.95;98873.38;5087779;28;20410;-80
2021/12/02 08:33:08;;;;;;;3.45;2.20;;;;;;;5.19;88.16;98875.22;5081825;28;20469;-80
2021/12/02 08:35:35;;;;;;;4.07;2.00;;;;;;;5.20;88.18;98878.72;5080172;28;20388;-80
2021/12/02 08:38:05;;;;;;;1.58;1.38;;;;;;;5.15;87.60;98878.66;5064674;28;20407;-79
2021/12/02 08:40:35;;;;;;;3.95;1.67;;;;;;;5.12;87.40;98877.28;5086813;28;20466;-80
2021/12/02 08:43:03;;;;;;;2.33;1.50;;;;;;;5.03;87.68;98881.47;5079343;28;20426;-80
2021/12/02 08:45:30;;;;;;;2.60;1.27;;;;;;;5.01;87.72;98880.06;5088716;28;20394;-79
2021/12/02 08:47:57;;;;;;;2.45;1.35;;;;;;;4.97;86.89;98882.41;5074649;28;20395;-79
2021/12/02 08:50:23;;;;;;;1.27;1.10;;;;;;;5.06;86.88;98889.00;5084804;28;20414;-80
2021/12/02 08:52:50;;;;;;;2.42;1.00;;;;;;;5.25;86.21;98881.47;5080546;28;20398;-80
2021/12/02 08:55:17;;;;;;;2.75;1.70;;;;;;;5.31;86.13;98887.72;5079760;28;20469;-79
2021/12/02 08:57:44;;;;;;;2.22;0.93;;;;;;;5.18;86.56;98894.25;5076434;28;20544;-80
2021/12/02 09:00:14;;;;;;;2.42;1.00;;;;;;;5.13;86.45;98896.91;5085110;28;20456;-80
2021/12/02 09:02:39;;;;;;;2.10;1.17;;;;;;;5.21;86.58;98905.31;5097559;28;20402;-80
2021/12/02 09:05:05;;;;;;;1.50;1.40;;;;;;;5.38;86.02;98893.72;5092626;28;20417;-80
2021/12/02 09:07:31;;;;;;;1.50;1.40;;;;;;;5.48;86.27;98901.91;5100818;28;20391;-80
2021/12/02 09:09:57;;;;;;;1.30;1.20;;;;;;;5.47;85.99;98905.66;5073990;28;20398;-80
2021/12/02 09:12:23;;;;;;;2.63;1.50;;;;;;;5.45;85.96;98913.16;5073177;28;20403;-80
2021/12/02 09:14:48;;;;;;;1.65;1.55;;;;;;;5.40;86.08;98907.75;5074121;28;20392;-80
2021/12/02 09:17:14;;;;;;;2.70;2.50;;;;;;;5.46;86.59;98917.47;5090004;28;21061;-81
2021/12/02 09:19:39;;;;;;;2.00;1.80;;;;;;;5.49;86.54;98922.34;5085555;28;20438;-80
2021/12/02 09:22:04;;;;;;;3.17;1.90;;;;;;;5.56;86.06;98925.69;5085185;28;20608;-80
2021/12/02 09:24:30;;;;;;;3.67;1.90;;;;;;;5.56;86.22;98923.81;5073845;28;20442;-80
2021/12/02 09:26:56;;;;;;;2.10;2.00;;;;;;;5.64;86.37;98930.59;5090179;28;20448;-81
2021/12/02 09:29:22;;;;;;;2.28;2.10;;;;;;;5.71;86.01;98937.41;5081550;28;20815;-80
2021/12/02 09:31:48;;;;;;;1.88;1.77;;;;;;;5.54;86.45;98933.97;5072998;28;20405;-80
2021/12/02 09:34:14;;;;;;;2.30;2.20;;;;;;;5.74;86.39;98928.03;5066650;28;20431;-80
2021/12/02 09:36:40;;;;;;;3.95;2.40;;;;;;;5.76;85.84;98944.75;5080371;28;20422;-80
2021/12/02 09:39:07;;;;;;;2.73;2.43;;;;;;;5.84;85.80;98941.59;5060103;28;20411;-80
2021/12/02 09:41:33;;;;;;;3.78;2.45;;;;;;;5.81;85.39;98942.09;5060697;28;20765;-80
2021/12/02 09:43:59;;;;;;;2.42;2.17;;;;;;;5.67;85.49;98941.66;5101310;28;20906;-80
2021/12/02 09:46:24;;;;;;;2.33;1.70;;;;;;;5.63;85.38;98945.91;5077448;28;20396;-81
2021/12/02 09:48:52;;;;;;;2.40;1.70;;;;;;;5.69;86.01;98942.25;5072302;28;20414;-80
2021/12/02 09:51:30;;;;;;;2.10;1.60;;;;;;;5.75;85.34;98951.19;5079430;28;20884;-81
2021/12/02 09:54:05;;;;;;;2.08;1.70;;;;;;;5.73;85.48;98951.41;5081157;28;20395;-81
2021/12/02 09:56:34;;;;;;;3.72;2.35;;;;;;;5.76;84.92;98958.97;5074613;28;20394;-80
2021/12/02 09:59:09;;;;;;;3.80;2.35;;;;;;;5.78;85.30;98953.34;5076273;28;20403;-81
2021/12/02 10:01:46;;;;;;;2.85;2.63;;;;;;;5.82;85.15;98959.03;5077434;28;20799;-81
2021/12/02 10:04:13;;;;;;;3.23;2.90;;;;;;;5.86;85.82;98949.47;5088442;28;20496;-80
2021/12/02 10:06:41;;;;;;;4.55;2.20;;;;;;;5.89;85.55;98946.28;5073663;28;20429;-81
2021/12/02 10:09:21;;;;;;;4.20;2.42;;;;;;;5.86;85.73;98952.16;5075022;28;20423;-81
2021/12/02 10:11:58;;;;;;;3.92;3.30;;;;;;;5.90;85.94;98948.69;5072471;28;20392;-80
2021/12/02 10:14:28;;;;;;;3.40;2.40;;;;;;;6.02;85.77;98948.56;5073930;28;20445;-81
2021/12/02 10:17:05;;;;;;;4.80;2.85;;;;;;;6.01;84.87;98949.63;5085638;28;20422;-81
2021/12/02 10:19:31;;;;;;;4.07;2.83;;;;;;;6.09;85.54;98946.50;5094171;28;20397;-80
2021/12/02 10:22:03;;;;;;;5.03;4.23;;;;;;;6.07;85.51;98949.44;5080110;28;20853;-80
2021/12/02 10:24:29;;;;;;;3.58;2.58;;;;;;;6.02;85.59;98951.25;5085762;28;20422;-80
2021/12/02 10:26:57;;;;;;;2.72;2.53;;;;;;;6.11;84.86;98945.19;5053754;28;20724;-80
2021/12/02 10:29:34;;;;;;;4.30;2.42;;;;;;;6.21;84.69;98941.78;5072175;28;20480;-80
2021/12/02 10:32:17;;;;;;;3.50;2.10;;;;;;;6.23;84.89;98948.53;5090638;28;20398;-81
2021/12/02 10:35:06;;;;;;;4.47;2.47;;;;;;;6.22;84.69;98946.88;5057956;28;20753;-80
2021/12/02 10:37:34;;;;;;;2.55;2.35;;;;;;;6.16;85.44;98949.78;5087207;28;20398;-80
2021/12/02 10:40:01;;;;;;;4.13;2.10;;;;;;;6.20;85.13;98945.53;5068586;28;20968;-80
2021/12/02 10:42:28;;;;;;;3.42;2.13;;;;;;;6.26;84.64;98948.00;5078874;28;20407;-81
2021/12/02 10:44:57;;;;;;;3.38;2.00;;;;;;;6.26;84.77;98941.81;5089910;28;20407;-81
2021/12/02 10:47:23;;;;;;;3.92;2.30;;;;;;;6.23;84.87;98939.63;5060274;28;20398;-81
2021/12/02 10:49:52;;;;;;;2.70;2.42;;;;;;;6.26;85.15;98942.63;5074013;28;20384;-81
2021/12/02 10:52:22;;;;;;;2.42;2.10;;;;;;;6.36;84.46;98938.41;5085480;28;20379;-81
2021/12/02 10:54:51;;;;;;;19.87;12.60;;;;;;;6.41;84.18;98935.78;5085030;28;20386;-81
2021/12/02 10:57:21;;;;;;;2.58;2.38;;;;;;;6.43;84.28;98939.03;5066769;28;20439;-81
2021/12/02 10:59:47;;;;;;;2.30;2.05;;;;;;;6.35;84.53;98932.25;5055283;28;20407;-80
2021/12/02 11:02:20;;;;;;;2.72;2.50;;;;;;;6.35;84.79;98942.19;5088548;28;20390;-80
2021/12/02 11:04:54;;;;;;;2.75;2.55;;;;;;;6.18;85.26;98945.78;5066385;28;20445;-81
2021/12/02 11:07:31;;;;;;;2.78;2.08;;;;;;;6.12;85.30;98936.06;5076717;28;20472;-80
2021/12/02 11:10:00;;;;;;;2.75;2.30;;;;;;;6.11;86.09;98936.28;5074752;28;20435;-81
2021/12/02 11:12:32;;;;;;;2.28;1.67;;;;;;;6.16;85.15;98937.16;5084563;28;20419;-80
2021/12/02 11:15:08;;;;;;;1.95;1.85;;;;;;;6.17;85.35;98929.91;5075240;28;20898;-81
2021/12/02 11:17:38;;;;;;;2.88;1.80;;;;;;;6.20;85.06;98932.91;5078826;28;20389;-80
2021/12/02 11:20:08;;;;;;;3.60;2.40;;;;;;;6.40;84.24;98931.47;5084149;28;20388;-80
2021/12/02 11:22:36;;;;;;;2.13;2.03;;;;;;;6.31;84.59;98933.00;5085524;28;20407;-81
2021/12/02 11:25:04;;;;;;;6.40;3.00;;;;;;;6.29;84.18;98927.84;5075295;28;20409;-79
2021/12/02 11:27:36;;;;;;;3.88;3.30;;;;;;;6.41;84.48;98923.16;5075159;28;20397;-80
2021/12/02 11:30:06;;;;;;;2.90;2.63;;;;;;;6.43;83.39;98925.56;5054078;28;20396;-80
2021/12/02 11:32:40;;;;;;;5.03;3.95;;;;;;;6.43;83.32;98925.56;5076752;28;20401;-80
2021/12/02 11:35:08;;;;;;;5.72;3.33;;;;;;;6.32;83.52;98940.81;5072455;28;20820;-80
2021/12/02 11:37:35;;;;;;;3.83;3.27;;;;;;;6.02;84.56;98941.31;5077720;28;20475;-80
2021/12/02 11:40:11;;;;;;;4.25;3.85;;;;;;;6.11;85.04;98933.59;5082615;28;20415;-80
2021/12/02 11:42:38;;;;;;;5.03;3.25;;;;;;;6.21;84.34;98936.41;5073236;28;20529;-80
2021/12/02 11:45:05;;;;;;;3.10;2.90;;;;;;;6.14;84.95;98938.47;5089624;28;20534;-79
2021/12/02 11:47:30;;;;;;;5.38;3.53;;;;;;;5.95;86.22;98934.50;5101238;28;20903;-79
2021/12/02 11:49:56;;;;;;;5.87;3.20;;;;;;;6.16;85.39;98934.47;5079338;28;20403;-79
2021/12/02 11:52:21;;;;;;;3.40;3.07;;;;;;;6.08;85.33;98932.25;5075986;28;20394;-79
2021/12/02 11:54:47;;;;;;;7.87;5.37;;;;;;;6.24;84.60;98927.81;5084660;28;20402;-81
2021/12/02 11:57:12;;;;;;;4.03;3.33;;;;;;;6.21;84.51;98931.03;5085394;28;20482;-80
2021/12/02 11:59:38;;;;;;;4.85;3.05;;;;;;;6.34;83.91;98922.53;5091260;28;20394;-79